Time;durP1;ratioP1;P1;durP2;ratioP2;P2;SDS_P1;SDS_P2;PMS_P1;PMS_P2;Temp;Humidity;BMP_temperature;BMP_pressure;BME280_temperature;BME280_humidity;BME280_pressure;Samples;Min_cycle;Max_cycle;Signal;HPM_P1;HPM_P2
2023/05/07 00:01:38;;;;;;;6.87;6.17;;;;;;;12.84;100.00;96269.91;5021119;28;102323;-61
2023/05/07 00:04:07;;;;;;;6.13;5.53;;;;;;;12.82;100.00;96275.50;5029484;27;102803;-61
2023/05/07 00:06:34;;;;;;;5.77;5.27;;;;;;;12.72;100.00;96272.88;5028591;28;101883;-61
2023/05/07 00:09:01;;;;;;;6.40;5.73;;;;;;;12.65;100.00;96279.53;5028655;28;105058;-61
2023/05/07 00:11:28;;;;;;;5.60;5.17;;;;;;;12.53;100.00;96274.44;5018155;28;105810;-61
2023/05/07 00:13:55;;;;;;;5.57;5.07;;;;;;;12.35;100.00;96274.13;5008488;28;102056;-61
2023/05/07 00:16:22;;;;;;;6.20;5.40;;;;;;;12.39;100.00;96275.22;5014504;28;102692;-61
2023/05/07 00:18:51;;;;;;;5.87;5.37;;;;;;;12.32;100.00;96274.69;5028561;28;101862;-61
2023/05/07 00:21:18;;;;;;;6.23;5.73;;;;;;;12.25;100.00;96284.78;5028186;28;104782;-61
2023/05/07 00:23:44;;;;;;;5.77;5.23;;;;;;;12.28;100.00;96284.25;5018378;28;105327;-61
2023/05/07 00:26:11;;;;;;;6.40;5.80;;;;;;;12.20;100.00;96282.09;5008158;28;101806;-61
2023/05/07 00:28:40;;;;;;;5.90;5.37;;;;;;;12.21;100.00;96286.38;5008414;28;104806;-61
2023/05/07 00:31:07;;;;;;;5.93;5.40;;;;;;;12.20;100.00;96279.41;5007782;28;105624;-61
2023/05/07 00:33:34;;;;;;;5.93;5.43;;;;;;;12.22;100.00;96274.66;5027919;28;102225;-61
2023/05/07 00:36:02;;;;;;;5.97;5.47;;;;;;;12.24;100.00;96275.19;5020244;28;104296;-61
2023/05/07 00:38:29;;;;;;;5.87;5.37;;;;;;;12.16;100.00;96278.38;5012384;28;102602;-60
2023/05/07 00:40:56;;;;;;;6.30;5.47;;;;;;;12.23;100.00;96285.06;5009830;28;102677;-61
2023/05/07 00:43:23;;;;;;;5.70;5.20;;;;;;;12.27;100.00;96278.13;5008484;28;105459;-61
2023/05/07 00:45:50;;;;;;;5.80;5.30;;;;;;;12.28;100.00;96273.59;5008422;28;101973;-61
2023/05/07 00:48:18;;;;;;;6.03;5.33;;;;;;;12.22;100.00;96282.66;5018934;28;105148;-61
2023/05/07 00:50:46;;;;;;;6.37;5.80;;;;;;;12.25;100.00;96284.78;5008228;28;105563;-61
2023/05/07 00:53:15;;;;;;;5.63;5.13;;;;;;;12.28;100.00;96284.25;5008205;28;101875;-61
2023/05/07 00:55:42;;;;;;;5.40;4.90;;;;;;;12.24;100.00;96284.00;5008005;28;103514;-60
2023/05/07 00:58:09;;;;;;;5.63;5.23;;;;;;;12.25;100.00;96280.25;5007314;28;105650;-61
2023/05/07 01:00:36;;;;;;;6.07;5.53;;;;;;;12.23;100.00;96276.25;5029105;28;101863;-61
2023/05/07 01:03:04;;;;;;;5.10;4.60;;;;;;;12.16;100.00;96281.03;5027145;28;105483;-61
2023/05/07 01:05:31;;;;;;;5.23;4.63;;;;;;;12.10;100.00;96284.75;5023762;28;101874;-61
2023/05/07 01:07:59;;;;;;;6.37;5.77;;;;;;;12.12;100.00;96285.28;5009197;28;103855;-61
2023/05/07 01:10:30;;;;;;;6.53;5.83;;;;;;;12.14;100.00;96285.81;5028039;28;102536;-61
2023/05/07 01:12:59;;;;;;;6.00;5.53;;;;;;;12.18;100.00;96276.22;5016519;28;102143;-61
2023/05/07 01:15:27;;;;;;;5.70;5.20;;;;;;;12.23;100.00;96284.25;5011349;28;104484;-61
2023/05/07 01:17:54;;;;;;;5.60;4.97;;;;;;;12.26;100.00;96276.50;5011769;28;102633;-61
2023/05/07 01:20:29;;;;;;;6.07;5.57;;;;;;;12.20;100.00;96282.09;5011712;28;102082;-61
2023/05/07 01:23:00;;;;;;;6.40;5.80;;;;;;;12.25;100.00;96276.78;5014001;28;105186;-61
2023/05/07 01:25:28;;;;;;;6.27;5.13;;;;;;;12.09;100.00;96272.47;5011194;28;101892;-60
2023/05/07 01:27:59;;;;;;;6.17;5.57;;;;;;;12.02;100.00;96271.91;5010646;28;104565;-61
2023/05/07 01:30:30;;;;;;;4.80;4.40;;;;;;;12.08;100.00;96281.53;5026054;28;105426;-61
2023/05/07 01:33:04;;;;;;;6.07;5.50;;;;;;;12.16;100.00;96283.69;5007825;28;101992;-60
2023/05/07 01:35:35;;;;;;;6.40;5.80;;;;;;;12.20;100.00;96282.09;5013995;28;102378;-61
2023/05/07 01:38:05;;;;;;;5.90;5.40;;;;;;;12.21;100.00;96281.03;5010430;28;105020;-61
2023/05/07 01:40:33;;;;;;;6.50;5.90;;;;;;;12.25;100.00;96280.25;5010877;28;101991;-61
2023/05/07 01:43:01;;;;;;;6.10;5.60;;;;;;;12.11;100.00;96278.34;5010583;28;104971;-60
2023/05/07 01:45:28;;;;;;;6.00;5.37;;;;;;;12.12;100.00;96271.94;5013606;28;105389;-61
2023/05/07 01:47:56;;;;;;;5.43;5.03;;;;;;;12.11;100.00;96267.69;5010884;28;104857;-61
2023/05/07 01:50:24;;;;;;;5.23;4.73;;;;;;;12.07;100.00;96258.59;5010225;28;105778;-61
2023/05/07 01:52:52;;;;;;;5.07;4.67;;;;;;;11.96;100.00;96265.78;5010605;28;101943;-61
2023/05/07 01:55:20;;;;;;;5.00;4.60;;;;;;;11.94;100.00;96265.22;5010766;28;104970;-61
2023/05/07 01:57:47;;;;;;;5.00;4.60;;;;;;;11.88;100.00;96268.16;5010250;28;105772;-61
2023/05/07 02:00:15;;;;;;;6.70;5.87;;;;;;;11.68;100.00;96278.72;5026828;28;101888;-60
2023/05/07 02:02:45;;;;;;;7.03;6.17;;;;;;;11.66;100.00;96288.84;5030718;28;104900;-61
2023/05/07 02:05:24;;;;;;;7.13;6.27;;;;;;;11.71;100.00;96275.50;5015718;28;104736;-61
2023/05/07 02:07:59;;;;;;;6.03;5.53;;;;;;;11.79;100.00;96275.03;5035102;28;101684;-61
2023/05/07 02:10:30;;;;;;;6.47;5.87;;;;;;;11.87;100.00;96274.50;5030044;28;105228;-61
2023/05/07 02:12:56;;;;;;;6.03;5.53;;;;;;;11.87;100.00;96277.19;5030573;28;101760;-61
2023/05/07 02:15:23;;;;;;;6.23;5.70;;;;;;;11.90;100.00;96279.34;5012060;27;102666;-61
2023/05/07 02:18:01;;;;;;;6.30;5.80;;;;;;;11.93;100.00;96276.16;5011380;28;105358;-61
2023/05/07 02:20:28;;;;;;;6.13;5.50;;;;;;;11.89;100.00;96281.19;5009289;28;101857;-60
2023/05/07 02:22:55;;;;;;;5.97;5.47;;;;;;;11.86;100.00;96270.25;5010026;28;105106;-61
2023/05/07 02:25:22;;;;;;;6.83;5.20;;;;;;;11.79;100.00;96275.03;5009363;28;106044;-61
2023/05/07 02:27:50;;;;;;;5.87;5.40;;;;;;;11.77;100.00;96271.84;5013213;28;101807;-61
2023/05/07 02:30:21;;;;;;;5.30;4.90;;;;;;;11.68;100.00;96268.88;5013376;28;104050;-61
2023/05/07 02:32:48;;;;;;;5.30;4.90;;;;;;;11.78;100.00;96270.78;5030225;28;101968;-61
2023/05/07 02:35:15;;;;;;;5.50;5.10;;;;;;;11.82;100.00;96264.66;5027257;27;102491;-61
2023/05/07 02:37:42;;;;;;;5.60;5.10;;;;;;;11.84;100.00;96262.53;5009412;28;104201;-61
2023/05/07 02:40:10;;;;;;;6.30;5.80;;;;;;;11.76;100.00;96265.69;5006786;28;103540;-61
2023/05/07 02:42:37;;;;;;;6.17;5.57;;;;;;;11.81;100.00;96263.06;4996589;28;102507;-61
2023/05/07 02:45:07;;;;;;;5.77;5.37;;;;;;;11.79;100.00;96259.03;5029324;28;105738;-61
2023/05/07 02:47:35;;;;;;;6.10;5.60;;;;;;;11.80;100.00;96260.66;5029605;28;102276;-61
2023/05/07 02:50:03;;;;;;;6.17;5.67;;;;;;;11.80;100.00;96260.66;5032557;28;105840;-61
2023/05/07 02:52:30;;;;;;;6.80;6.10;;;;;;;11.83;100.00;96258.25;5027111;28;101968;-61
2023/05/07 02:54:57;;;;;;;6.20;5.60;;;;;;;11.81;100.00;96270.22;5017013;28;105341;-61
2023/05/07 02:57:24;;;;;;;5.70;5.27;;;;;;;11.73;100.00;96265.41;5027473;28;105019;-61
2023/05/07 02:59:52;;;;;;;6.07;5.57;;;;;;;11.73;100.00;96276.06;5010979;28;101791;-61
2023/05/07 03:02:22;;;;;;;6.73;6.10;;;;;;;11.71;100.00;96271.00;5010212;28;105604;-61
2023/05/07 03:04:49;;;;;;;6.07;5.50;;;;;;;11.65;100.00;96271.22;4989930;28;105549;-61
2023/05/07 03:07:16;;;;;;;5.87;5.33;;;;;;;11.59;100.00;96272.25;5008209;28;103494;-61
2023/05/07 03:09:43;;;;;;;5.47;5.07;;;;;;;11.59;100.00;96273.09;5031144;27;102535;-61
2023/05/07 03:12:10;;;;;;;5.47;4.97;;;;;;;11.53;100.00;96265.28;5032018;28;103905;-61
2023/05/07 03:14:37;;;;;;;5.63;4.90;;;;;;;11.46;100.00;96264.72;5010317;28;105186;-61
2023/05/07 03:17:03;;;;;;;5.83;5.33;;;;;;;11.41;100.00;96262.84;4998639;28;106414;-61
2023/05/07 03:19:32;;;;;;;5.50;4.97;;;;;;;11.45;100.00;96263.91;5029216;28;101915;-61
2023/05/07 03:21:59;;;;;;;5.43;4.93;;;;;;;11.49;100.00;96265.00;5029338;28;105169;-61
2023/05/07 03:24:26;;;;;;;5.77;5.27;;;;;;;11.51;100.00;96265.53;5011034;28;105537;-61
2023/05/07 03:26:52;;;;;;;6.20;5.60;;;;;;;11.52;100.00;96269.00;5022809;28;101948;-61
2023/05/07 03:29:20;;;;;;;5.47;4.97;;;;;;;11.50;100.00;96265.81;5024180;28;103517;-61
2023/05/07 03:31:47;;;;;;;5.63;5.13;;;;;;;11.45;100.00;96268.44;5014017;27;105382;-61
2023/05/07 03:34:14;;;;;;;5.70;5.30;;;;;;;11.41;100.00;96278.81;5012840;28;101991;-61
2023/05/07 03:36:43;;;;;;;5.93;5.43;;;;;;;11.42;100.00;96280.41;5008602;28;105563;-61
2023/05/07 03:39:12;;;;;;;5.90;5.40;;;;;;;11.45;100.00;96273.78;5009250;28;101930;-61
2023/05/07 03:41:41;;;;;;;5.67;5.17;;;;;;;11.42;100.00;96274.28;5019977;28;105295;-61
2023/05/07 03:44:10;;;;;;;5.53;5.13;;;;;;;11.36;100.00;96270.00;5013263;28;105429;-61
2023/05/07 03:46:37;;;;;;;6.00;5.50;;;;;;;11.35;100.00;96273.72;5010979;28;101965;-61
2023/05/07 03:49:05;;;;;;;6.33;5.73;;;;;;;11.43;100.00;96270.56;5009009;28;105297;-61
2023/05/07 03:51:32;;;;;;;5.40;5.03;;;;;;;11.47;100.00;96271.66;5008549;28;105340;-61
2023/05/07 03:54:00;;;;;;;6.63;6.03;;;;;;;11.40;100.00;96271.09;5023684;28;102216;-61
2023/05/07 03:56:30;;;;;;;7.00;6.30;;;;;;;11.38;100.00;96268.69;5022183;28;105260;-61
2023/05/07 03:58:59;;;;;;;5.57;5.07;;;;;;;11.38;100.00;96267.84;5008864;28;101984;-61
2023/05/07 04:01:26;;;;;;;6.43;5.83;;;;;;;11.35;100.00;96265.72;5009706;28;105774;-61
2023/05/07 04:03:53;;;;;;;6.23;5.67;;;;;;;11.36;100.00;96268.16;5007926;28;105302;-61
2023/05/07 04:06:20;;;;;;;7.10;5.83;;;;;;;11.37;100.00;96274.25;5026529;28;101798;-61
2023/05/07 04:08:49;;;;;;;6.60;6.07;;;;;;;11.40;100.00;96271.88;5029002;28;105205;-61
2023/05/07 04:11:18;;;;;;;6.97;6.47;;;;;;;11.39;100.00;96266.81;5027754;28;105433;-61
2023/05/07 04:13:45;;;;;;;6.43;5.83;;;;;;;11.40;100.00;96265.75;5017387;28;102008;-61
2023/05/07 04:16:11;;;;;;;6.87;6.27;;;;;;;11.42;100.00;96275.09;5008715;28;104891;-61
2023/05/07 04:18:39;;;;;;;6.33;5.93;;;;;;;11.36;100.00;96267.31;5011448;28;102668;-61
2023/05/07 04:21:06;;;;;;;6.13;5.60;;;;;;;11.29;100.00;96264.88;5014091;28;105180;-61
2023/05/07 04:23:36;;;;;;;6.10;5.50;;;;;;;11.28;100.00;96273.16;5017987;28;105846;-61
2023/05/07 04:26:08;;;;;;;5.97;5.47;;;;;;;11.18;100.00;96275.75;5008487;28;101773;-61
2023/05/07 04:28:42;;;;;;;5.60;5.10;;;;;;;11.27;100.00;96287.50;5009902;28;104856;-61
2023/05/07 04:31:10;;;;;;;6.33;5.83;;;;;;;11.26;100.00;96278.72;5028007;28;105427;-61
2023/05/07 04:33:38;;;;;;;5.90;5.50;;;;;;;11.32;100.00;96282.19;5019047;28;101874;-61
2023/05/07 04:36:07;;;;;;;6.80;6.20;;;;;;;11.41;100.00;96289.47;5008779;28;105410;-61
2023/05/07 04:38:41;;;;;;;6.17;5.60;;;;;;;11.43;100.00;96300.66;5011321;28;104902;-61
2023/05/07 04:41:08;;;;;;;6.67;6.07;;;;;;;11.41;100.00;96296.66;5015304;28;105722;-61
2023/05/07 04:43:42;;;;;;;6.53;6.00;;;;;;;11.53;100.00;96302.56;5021247;28;103793;-61
2023/05/07 04:46:11;;;;;;;6.03;5.43;;;;;;;11.62;100.00;96301.06;5011953;28;102276;-61
2023/05/07 04:48:38;;;;;;;6.40;5.90;;;;;;;11.67;100.00;96304.53;5022469;28;104876;-61
2023/05/07 04:51:06;;;;;;;6.50;6.00;;;;;;;11.62;100.00;96309.84;5029989;28;105136;-61
2023/05/07 04:53:33;;;;;;;6.10;5.50;;;;;;;11.59;100.00;96305.03;5024283;28;101960;-61
2023/05/07 04:56:01;;;;;;;6.10;5.60;;;;;;;11.74;100.00;96305.13;5011786;28;104163;-61
2023/05/07 04:58:34;;;;;;;5.83;5.33;;;;;;;11.81;100.00;96304.88;5011093;28;105312;-61
2023/05/07 05:01:03;;;;;;;5.87;5.37;;;;;;;11.84;100.00;96315.03;5020521;28;102174;-61
2023/05/07 05:03:31;;;;;;;5.63;5.10;;;;;;;11.76;100.00;96318.97;5020166;28;105147;-61
2023/05/07 05:05:59;;;;;;;5.87;5.37;;;;;;;11.66;100.00;96318.13;5012702;28;101925;-61
2023/05/07 05:08:28;;;;;;;6.17;5.53;;;;;;;11.76;100.00;96318.97;5023544;28;104961;-61
2023/05/07 05:10:55;;;;;;;6.63;6.03;;;;;;;11.88;100.00;96326.78;5031112;28;105654;-61
2023/05/07 05:13:22;;;;;;;6.87;6.20;;;;;;;11.89;100.00;96325.72;5029626;28;102027;-61
2023/05/07 05:15:49;;;;;;;7.40;6.60;;;;;;;11.94;100.00;96331.84;5030715;28;105478;-61
2023/05/07 05:18:17;;;;;;;8.20;7.50;;;;;;;12.07;100.00;96320.72;5030179;28;103903;-61
2023/05/07 05:20:44;;;;;;;8.50;7.70;;;;;;;12.17;100.00;96325.28;5031102;28;101937;-61
2023/05/07 05:23:12;;;;;;;8.17;7.10;;;;;;;12.20;100.00;96328.22;5033925;28;105264;-61
2023/05/07 05:25:40;;;;;;;7.00;6.43;;;;;;;12.25;100.00;96335.44;5031319;28;103741;-61
2023/05/07 05:28:08;;;;;;;7.20;6.60;;;;;;;12.37;100.00;96330.69;5029797;28;105329;-61
2023/05/07 05:30:35;;;;;;;6.77;6.27;;;;;;;12.52;100.00;96336.84;5030513;28;105025;-60
2023/05/07 05:33:02;;;;;;;8.43;7.63;;;;;;;12.72;100.00;96336.91;5026395;27;101827;-61
2023/05/07 05:35:31;;;;;;;9.10;8.33;;;;;;;12.76;100.00;96339.84;5011032;28;104797;-61
2023/05/07 05:38:00;;;;;;;10.57;9.57;;;;;;;12.75;100.00;96344.34;5010700;28;105692;-61
2023/05/07 05:40:27;;;;;;;11.73;10.67;;;;;;;12.83;100.00;96337.69;5031065;28;101940;-61
2023/05/07 05:42:55;;;;;;;11.27;10.37;;;;;;;13.02;100.00;96344.19;5022342;28;104922;-61
2023/05/07 05:45:22;;;;;;;10.77;9.77;;;;;;;13.15;100.00;96335.63;5012637;28;105189;-61
2023/05/07 05:47:49;;;;;;;11.47;10.47;;;;;;;13.07;100.00;96330.78;5016346;28;104961;-61
2023/05/07 05:50:17;;;;;;;9.43;8.47;;;;;;;13.20;100.00;96323.06;5029347;28;105400;-60
2023/05/07 05:52:46;;;;;;;7.43;6.83;;;;;;;13.37;100.00;96328.13;5024668;28;102020;-61
2023/05/07 05:55:13;;;;;;;8.27;7.57;;;;;;;13.60;100.00;96327.56;5009547;28;104959;-61
2023/05/07 05:57:40;;;;;;;8.33;7.60;;;;;;;13.91;100.00;96321.06;5014882;28;105391;-61
2023/05/07 06:00:09;;;;;;;9.30;8.50;;;;;;;14.06;100.00;96321.03;5030767;28;101875;-61
2023/05/07 06:02:45;;;;;;;9.20;8.40;;;;;;;14.26;100.00;96310.25;5028576;27;102238;-61
2023/05/07 06:05:16;;;;;;;8.10;7.40;;;;;;;14.42;100.00;96311.78;5030015;28;105531;-61
2023/05/07 06:07:44;;;;;;;8.53;7.30;;;;;;;14.57;100.00;96317.03;5028657;28;102048;-61
2023/05/07 06:10:13;;;;;;;7.93;7.17;;;;;;;14.66;100.00;96302.00;4993619;28;103886;-61
2023/05/07 06:12:41;;;;;;;8.07;7.37;;;;;;;14.79;100.00;96310.22;5011617;28;102415;-60
2023/05/07 06:15:08;;;;;;;8.07;7.37;;;;;;;14.88;100.00;96308.53;5010428;28;106047;-60
2023/05/07 06:17:35;;;;;;;8.03;7.17;;;;;;;15.03;100.00;96313.78;5028170;28;106184;-61
2023/05/07 06:20:02;;;;;;;7.17;6.53;;;;;;;15.20;100.00;96308.81;5023579;28;101877;-60
2023/05/07 06:22:29;;;;;;;8.43;6.90;;;;;;;15.26;100.00;96304.22;5010468;28;105229;-60
2023/05/07 06:24:56;;;;;;;6.97;6.47;;;;;;;15.39;100.00;96314.31;5012020;28;102589;-61
2023/05/07 06:27:25;;;;;;;7.07;6.47;;;;;;;15.36;100.00;96310.31;5020481;28;102078;-61
2023/05/07 06:29:52;;;;;;;7.33;6.63;;;;;;;15.50;100.00;96302.41;5029427;28;105056;-60
2023/05/07 06:32:19;;;;;;;7.73;6.90;;;;;;;15.58;100.00;96299.91;5028680;28;101955;-61
2023/05/07 06:34:47;;;;;;;6.33;5.83;;;;;;;15.67;100.00;96302.78;5030320;28;105310;-60
2023/05/07 06:37:15;;;;;;;6.00;5.40;;;;;;;15.91;100.00;96303.59;5005546;28;104137;-60
2023/05/07 06:39:55;;;;;;;7.50;6.80;;;;;;;15.90;100.00;96301.97;5009888;28;101971;-60
2023/05/07 06:42:23;;;;;;;6.77;6.17;;;;;;;16.06;100.00;96301.53;5009724;28;106109;-61
2023/05/07 06:44:52;;;;;;;6.37;5.87;;;;;;;16.21;100.00;96298.66;5020221;28;105370;-60
2023/05/07 06:47:19;;;;;;;6.97;6.27;;;;;;;16.16;100.00;96301.41;5023324;28;101926;-60
2023/05/07 06:49:50;;;;;;;6.87;6.13;;;;;;;16.40;100.00;96296.03;5013783;28;104942;-60
2023/05/07 06:52:19;;;;;;;6.40;5.80;;;;;;;16.62;100.00;96299.75;5009865;28;101871;-60
2023/05/07 06:54:49;;;;;;;7.43;6.73;;;;;;;16.51;100.00;96292.91;5009424;28;103998;-60
2023/05/07 06:57:18;;;;;;;6.53;5.33;;;;;;;16.74;100.00;96299.31;5009339;28;105745;-62
2023/05/07 06:59:45;;;;;;;6.90;6.20;;;;;;;16.89;100.00;96294.50;5012883;28;102041;-61
2023/05/07 07:02:13;;;;;;;8.93;6.00;;;;;;;16.90;100.00;96289.94;5030168;28;105455;-62
2023/05/07 07:04:56;;;;;;;6.10;5.60;;;;;;;16.92;100.00;96293.13;5026139;28;105328;-61
2023/05/07 07:07:23;;;;;;;6.20;5.60;;;;;;;17.09;100.00;96296.06;5016697;28;101891;-61
2023/05/07 07:09:51;;;;;;;5.80;5.30;;;;;;;17.41;100.00;96290.72;5029882;28;105181;-61
2023/05/07 07:12:19;;;;;;;6.13;5.67;;;;;;;17.54;100.00;96298.06;5032785;28;104238;-61
2023/05/07 07:15:39;;;;;;;6.37;5.77;;;;;;;16.78;100.00;96292.28;5029601;28;105000;-61
2023/05/07 07:18:08;;;;;;;6.40;5.40;;;;;;;16.83;100.00;96294.88;5016295;28;104660;-61
2023/05/07 07:20:35;;;;;;;6.17;5.57;;;;;;;17.36;100.00;96290.78;5009673;28;102003;-61
2023/05/07 07:23:03;;;;;;;8.73;6.57;;;;;;;17.35;100.00;96294.56;5021721;28;104634;-61
2023/05/07 07:25:30;;;;;;;6.40;5.67;;;;;;;17.48;100.00;96297.31;5028640;28;105207;-61
2023/05/07 07:27:57;;;;;;;6.07;5.47;;;;;;;17.34;100.00;96290.28;5028048;28;102200;-61
2023/05/07 07:30:26;;;;;;;5.73;4.50;;;;;;;17.68;100.00;96288.09;5015338;28;105452;-61
2023/05/07 07:32:52;;;;;;;5.43;4.50;;;;;;;17.80;100.00;96288.41;5008606;28;105469;-61
2023/05/07 07:35:22;;;;;;;5.03;4.37;;;;;;;17.75;100.00;96296.56;5012617;28;102056;-61
2023/05/07 07:37:50;;;;;;;5.60;4.43;;;;;;;18.05;100.00;96291.41;5009555;28;105131;-61
2023/05/07 07:40:17;;;;;;;4.77;4.37;;;;;;;17.75;100.00;96291.19;5009023;28;102049;-61
2023/05/07 07:42:46;;;;;;;4.80;4.40;;;;;;;18.09;100.00;96284.31;5011993;28;105356;-61
2023/05/07 07:45:13;;;;;;;4.40;4.10;;;;;;;18.11;100.00;96289.41;5008395;28;104588;-61
2023/05/07 07:47:44;;;;;;;5.57;4.93;;;;;;;17.90;100.00;96293.59;5024424;28;101905;-61
2023/05/07 07:50:11;;;;;;;4.80;4.27;;;;;;;18.28;100.00;96289.59;5030382;27;102764;-61
2023/05/07 07:52:40;;;;;;;4.70;4.33;;;;;;;18.19;100.00;96294.06;5026377;28;105069;-61
2023/05/07 07:55:09;;;;;;;5.90;4.50;;;;;;;18.37;100.00;96290.53;5027821;28;103562;-61
2023/05/07 07:57:37;;;;;;;4.27;3.93;;;;;;;18.90;100.00;96291.47;5031630;28;105050;-61
2023/05/07 08:00:07;;;;;;;4.30;3.90;;;;;;;18.56;100.00;96291.97;5028948;28;101862;-61
2023/05/07 08:02:43;;;;;;;4.80;4.40;;;;;;;18.59;100.00;96293.28;5026958;28;102241;-61
2023/05/07 08:05:15;;;;;;;4.27;3.87;;;;;;;18.88;100.00;96296.38;5023876;28;105020;-61
2023/05/07 08:07:44;;;;;;;4.20;3.83;;;;;;;19.19;100.00;96283.78;5023657;28;101827;-61
2023/05/07 08:10:12;;;;;;;4.73;3.70;;;;;;;19.55;100.00;96277.22;5017533;28;105147;-61
2023/05/07 08:12:39;;;;;;;5.43;3.30;;;;;;;19.54;100.00;96286.41;5008327;28;105171;-61
2023/05/07 08:15:07;;;;;;;3.03;2.70;;;;;;;19.90;100.00;96281.66;5008797;28;102081;-61
2023/05/07 08:17:34;;;;;;;3.00;2.60;;;;;;;20.21;100.00;96287.06;5022741;27;104608;-62
2023/05/07 08:20:02;;;;;;;3.67;2.77;;;;;;;20.46;100.00;96287.13;5034725;28;105202;-61
2023/05/07 08:22:30;;;;;;;2.83;2.47;;;;;;;20.64;100.00;96291.44;5032456;28;104598;-61
2023/05/07 08:25:02;;;;;;;2.70;2.50;;;;;;;20.06;100.00;96290.16;5031078;27;102512;-61
2023/05/07 08:27:30;;;;;;;2.57;2.37;;;;;;;20.45;100.00;96284.72;5019310;28;101870;-61
2023/05/07 08:29:57;;;;;;;2.70;2.50;;;;;;;19.92;100.00;96290.25;5013230;28;102300;-61
2023/05/07 08:32:24;;;;;;;2.77;2.57;;;;;;;19.97;100.00;96286.63;5011496;28;105349;-61
2023/05/07 08:34:51;;;;;;;4.10;2.57;;;;;;;20.38;100.00;96279.00;5011945;28;101892;-61
2023/05/07 08:37:18;;;;;;;3.63;2.80;;;;;;;20.12;100.00;96283.53;5022608;28;104873;-62
2023/05/07 08:39:46;;;;;;;2.90;2.60;;;;;;;20.44;100.00;96288.56;5019432;28;105193;-61
2023/05/07 08:42:24;;;;;;;2.70;2.50;;;;;;;20.36;100.00;96295.53;5011932;28;104866;-61
2023/05/07 08:44:53;;;;;;;2.53;2.33;;;;;;;20.23;100.00;96293.75;5011295;28;105989;-62
2023/05/07 08:47:30;;;;;;;2.87;2.40;;;;;;;20.60;100.00;96287.00;5012889;28;101845;-61
2023/05/07 08:50:01;;;;;;;3.50;2.90;;;;;;;20.40;100.00;96287.59;5011555;28;105376;-62
2023/05/07 08:52:28;;;;;;;3.13;2.30;;;;;;;20.93;100.00;96286.25;5031773;28;102765;-61
2023/05/07 08:54:55;;;;;;;2.20;2.00;;;;;;;21.66;100.00;96296.03;5031879;28;101936;-61
2023/05/07 08:57:26;;;;;;;2.00;1.90;;;;;;;21.88;100.00;96301.25;5022987;28;103886;-62
2023/05/07 08:59:53;;;;;;;1.50;1.40;;;;;;;22.28;100.00;96291.69;5030958;28;105025;-61
2023/05/07 09:02:20;;;;;;;1.53;1.43;;;;;;;22.63;100.00;96290.41;5034228;28;101917;-62
2023/05/07 09:04:48;;;;;;;1.40;1.40;;;;;;;22.77;100.00;96293.66;5031055;28;104800;-61
2023/05/07 09:07:14;;;;;;;1.30;1.20;;;;;;;22.99;100.00;96285.22;5029829;28;101980;-61
2023/05/07 09:09:45;;;;;;;1.93;1.30;;;;;;;23.11;100.00;96291.47;5017817;28;105186;-61
2023/05/07 09:12:13;;;;;;;2.47;1.30;;;;;;;23.26;100.00;96281.97;5010793;28;105461;-61
2023/05/07 09:14:43;;;;;;;1.67;1.20;;;;;;;23.41;100.00;96286.75;5012481;28;101930;-62
2023/05/07 09:17:10;;;;;;;1.30;1.20;;;;;;;23.43;100.00;96289.97;5011470;28;105389;-61
2023/05/07 09:19:38;;;;;;;2.13;1.50;;;;;;;23.64;100.00;96288.00;5010377;28;105516;-61
2023/05/07 09:22:08;;;;;;;2.23;1.67;;;;;;;23.91;100.00;96276.50;5011116;28;101940;-61
2023/05/07 09:24:49;;;;;;;2.10;1.57;;;;;;;23.55;100.00;96281.84;5015074;28;104961;-61
2023/05/07 09:27:19;;;;;;;1.70;1.60;;;;;;;23.52;100.00;96274.34;5019788;28;101905;-61
2023/05/07 09:29:48;;;;;;;1.43;1.33;;;;;;;23.73;100.00;96277.81;5011681;28;105254;-61
2023/05/07 09:32:16;;;;;;;1.50;1.40;;;;;;;23.76;100.00;96279.88;5027330;28;105594;-61
2023/05/07 09:34:43;;;;;;;1.20;1.20;;;;;;;23.47;100.00;96277.28;5029979;28;101908;-61
2023/05/07 09:37:14;;;;;;;3.23;1.33;;;;;;;23.84;100.00;96277.06;4991024;28;105465;-61
2023/05/07 09:39:42;;;;;;;1.50;1.40;;;;;;;24.11;100.00;96270.22;5015548;28;105497;-61
2023/05/07 09:42:11;;;;;;;1.60;1.50;;;;;;;24.28;100.00;96272.69;5030968;28;102022;-61
2023/05/07 09:44:38;;;;;;;2.57;1.70;;;;;;;24.61;100.00;96273.38;5030141;28;105628;-61
2023/05/07 09:47:12;;;;;;;3.07;1.70;;;;;;;24.65;100.00;96263.41;5014282;28;103914;-61
2023/05/07 09:49:48;;;;;;;2.00;1.50;;;;;;;24.69;100.00;96267.03;5010927;28;104768;-61
2023/05/07 09:52:19;;;;;;;1.57;1.47;;;;;;;24.86;100.00;96255.91;5026067;28;105082;-61
2023/05/07 09:54:51;;;;;;;1.47;1.37;;;;;;;24.99;99.84;96260.16;5030875;28;101910;-61
2023/05/07 09:57:21;;;;;;;1.63;1.53;;;;;;;25.15;96.56;96263.75;5027284;28;104620;-61
2023/05/07 09:59:55;;;;;;;1.77;1.37;;;;;;;25.29;97.58;96266.91;5029975;28;105230;-61
2023/05/07 10:02:27;;;;;;;1.10;1.10;;;;;;;24.83;75.68;96265.53;5030084;28;101917;-61
2023/05/07 10:04:55;;;;;;;2.70;1.47;;;;;;;24.88;90.33;96256.34;5010992;28;104832;-61
2023/05/07 10:07:27;;;;;;;1.40;1.30;;;;;;;24.76;100.00;96259.91;5009593;28;105262;-61
2023/05/07 10:10:00;;;;;;;1.37;1.27;;;;;;;25.15;88.75;96261.81;5014347;28;101893;-61
2023/05/07 10:12:38;;;;;;;2.10;1.50;;;;;;;25.30;85.71;96263.03;5010001;28;104006;-61
2023/05/07 10:15:08;;;;;;;1.80;1.30;;;;;;;25.41;89.10;96259.47;5018124;28;102035;-61
2023/05/07 10:17:39;;;;;;;1.27;1.17;;;;;;;25.53;82.17;96261.34;5031592;28;102672;-61
2023/05/07 10:20:08;;;;;;;1.30;1.13;;;;;;;25.57;85.74;96263.03;5029814;28;104865;-61
2023/05/07 10:22:40;;;;;;;1.53;1.27;;;;;;;25.54;75.83;96252.81;5025675;28;101954;-61
2023/05/07 10:25:15;;;;;;;1.57;1.47;;;;;;;25.59;73.97;96260.75;5010415;28;104674;-61
2023/05/07 10:27:44;;;;;;;1.17;1.00;;;;;;;25.47;69.91;96258.09;4990899;28;102617;-61
2023/05/07 10:30:20;;;;;;;2.13;1.30;;;;;;;25.59;77.17;96260.75;4991103;28;101966;-61
2023/05/07 10:32:52;;;;;;;1.90;1.70;;;;;;;26.12;75.84;96265.66;5014000;28;104766;-61
2023/05/07 10:35:33;;;;;;;0.97;0.97;;;;;;;26.20;73.56;96256.50;5012670;28;101873;-61
2023/05/07 10:38:02;;;;;;;1.20;1.10;;;;;;;25.96;71.72;96256.69;5030057;28;104840;-61
2023/05/07 10:40:32;;;;;;;1.97;1.00;;;;;;;25.60;76.21;96264.28;5027013;28;105042;-61
2023/05/07 10:43:02;;;;;;;2.00;1.30;;;;;;;25.97;72.26;96262.91;5029871;28;102093;-61
2023/05/07 10:45:33;;;;;;;2.07;1.20;;;;;;;26.47;72.16;96262.97;5026713;28;103856;-61
2023/05/07 10:48:13;;;;;;;1.30;1.20;;;;;;;26.28;87.38;96260.19;5009284;28;105649;-61
2023/05/07 10:50:42;;;;;;;1.20;1.17;;;;;;;26.30;76.69;96258.69;5014626;28;101841;-61
2023/05/07 10:53:26;;;;;;;2.67;1.23;;;;;;;26.43;75.47;96264.84;5032970;28;104825;-61
2023/05/07 10:56:27;;;;;;;1.17;1.17;;;;;;;26.51;69.79;96259.19;5028982;28;101934;-61
2023/05/07 10:59:32;;;;;;;1.90;1.13;;;;;;;26.71;64.39;96257.34;5029921;28;105576;-61
2023/05/07 11:02:07;;;;;;;1.67;1.30;;;;;;;26.41;64.10;96250.75;5029162;28;105655;-61
2023/05/07 11:05:25;;;;;;;1.53;1.10;;;;;;;26.72;61.96;96253.47;5021784;27;102158;-61
2023/05/07 11:08:06;;;;;;;2.07;1.33;;;;;;;27.05;59.79;96248.34;4990366;28;105430;-61
2023/05/07 11:10:55;;;;;;;2.27;1.10;;;;;;;27.28;60.34;96243.75;5008797;28;104982;-61
2023/05/07 11:13:44;;;;;;;1.50;1.20;;;;;;;27.02;64.52;96246.34;5009289;28;102124;-61
2023/05/07 11:16:21;;;;;;;1.10;1.10;;;;;;;27.32;62.04;96250.88;5019085;28;104978;-61
2023/05/07 11:18:53;;;;;;;1.17;1.10;;;;;;;27.69;65.71;96248.47;5018509;28;105279;-61
2023/05/07 11:21:37;;;;;;;1.13;1.03;;;;;;;27.47;58.55;96246.50;5009635;28;105337;-61
2023/05/07 11:24:22;;;;;;;0.97;0.97;;;;;;;27.41;55.59;96245.22;5007238;28;102192;-61
2023/05/07 11:26:55;;;;;;;1.23;1.13;;;;;;;26.98;58.74;96243.50;5023505;28;101911;-61
2023/05/07 11:29:24;;;;;;;1.20;1.10;;;;;;;27.62;53.35;96256.53;5029061;28;104851;-61